Nearby METAR Reports

 

YMML - Melbourne Intl A, Australia
Distance from station: SSW 13km
Updated: Wed, 17-Jan-2018 9:30am AEDT
Mostly Cloudy
Mostly Cloudy
 Wind from W
Wind: W 11 km/h
Temperature: 18°C
Dew Point: 12°C
Humidity: 68%
Barometer: 1019 hPa
Clouds: Mostly Cloudy
Visibility: 10 km
Cloud details: Few Clouds 914 m
Mostly Cloudy 8534 m
2018/01/16 22:30 YMML 162230Z 27006KT 9999 FEW030 BKN280 18/12 Q1019 NOSIG
YMEN - Melbourne/Essend, Australia
Distance from station: S 16km
Updated: Wed, 17-Jan-2018 9:00am AEDT
Clear
Clear
 Wind from WNW
Wind: WNW 11 km/h
Temperature: 17°C
Dew Point: 12°C
Humidity: 73%
Barometer: 1019 hPa
Clouds: Clear
Visibility: 10 km
2018/01/16 22:00 YMEN 162200Z AUTO 30006KT 270V340 9999 // NCD 17/12 Q1019
 
YMAV - Avalon Airport, Australia
Distance from station: SW 63km
Updated: Wed, 17-Jan-2018 9:30am AEDT
Clear
Clear
 Wind from SE
Wind: SE 13 km/h
Temperature: 19°C
Dew Point: 12°C
Humidity: 64%
Barometer: 1019 hPa
Clouds: Clear
Visibility: 10 km
2018/01/16 22:30 YMAV 162230Z AUTO 14007KT 110V170 9999 // NCD 19/12 Q1019 RF00.0/000.0

Metar display script from Saratoga-Weather.org